createdAt,value
2023-03-16T00:00:08.444Z,85.3
2023-03-16T00:05:59.495Z,85
2023-03-16T00:11:58.645Z,84.9
2023-03-16T00:18:10.039Z,85.7
2023-03-16T00:30:34.667Z,85.7
2023-03-16T00:36:35.964Z,84.7
2023-03-16T00:42:44.040Z,84.9
2023-03-16T00:48:50.989Z,84.1
2023-03-16T00:55:07.614Z,84
2023-03-16T01:01:28.281Z,83.9
2023-03-16T01:07:33.373Z,83.8
2023-03-16T01:13:42.141Z,83.4
2023-03-16T01:19:33.049Z,83.7
2023-03-16T01:31:58.347Z,83.4
2023-03-16T01:37:59.930Z,83.6
2023-03-16T01:50:26.132Z,84.3
2023-03-16T01:56:29.815Z,83.6
2023-03-16T02:02:51.294Z,83.4
2023-03-16T02:08:54.491Z,83
2023-03-16T02:14:48.768Z,83.7
2023-03-16T02:20:58.092Z,83.9
2023-03-16T02:27:03.584Z,83.6
2023-03-16T02:33:06.809Z,84.4
2023-03-16T02:45:52.526Z,84.2
2023-03-16T02:52:05.932Z,84.6
2023-03-16T02:58:01.734Z,84.6
2023-03-16T03:04:05.016Z,84.8
2023-03-16T03:10:05.084Z,85.2
2023-03-16T03:16:03.110Z,84.3
2023-03-16T03:21:57.386Z,84.4
2023-03-16T03:28:03.039Z,84.4
2023-03-16T03:34:12.924Z,84.5
2023-03-16T03:40:06.943Z,83.9
2023-03-16T03:46:17.225Z,84.3
2023-03-16T03:52:08.864Z,84.8
2023-03-16T03:58:07.555Z,84.9
2023-03-16T04:04:19.359Z,84.6
2023-03-16T04:10:16.799Z,84.5
2023-03-16T04:16:15.058Z,83.9
2023-03-16T04:28:27.823Z,84.1
2023-03-16T04:34:24.317Z,83.9
2023-03-16T04:40:23.502Z,84.3
2023-03-16T04:46:40.068Z,84.7
2023-03-16T04:52:45.002Z,85.1
2023-03-16T04:58:50.147Z,85.4
2023-03-16T05:04:55.552Z,85.4
2023-03-16T05:10:58.157Z,85.6
2023-03-16T05:17:12.631Z,85.8
2023-03-16T05:23:13.070Z,85.8
2023-03-16T05:30:21.167Z,85.7
2023-03-16T05:36:10.295Z,86.2
2023-03-16T05:42:05.659Z,85.8
2023-03-16T05:47:56.779Z,86.5
2023-03-16T05:53:46.635Z,86
2023-03-16T05:59:34.258Z,85.9
2023-03-16T06:05:23.502Z,85.8
2023-03-16T06:11:13.121Z,86.1
2023-03-16T06:17:04.929Z,85.6
2023-03-16T06:22:57.235Z,85.6
2023-03-16T06:28:55.339Z,86.1
2023-03-16T06:34:45.969Z,86.4
2023-03-16T06:40:38.816Z,86.1
2023-03-16T06:46:30.852Z,86.3
2023-03-16T06:52:23.212Z,85.9
2023-03-16T06:58:14.083Z,85.7
2023-03-16T07:04:04.386Z,85.4
2023-03-16T07:15:58.670Z,84.6
2023-03-16T07:21:53.633Z,84.3
2023-03-16T07:27:45.311Z,83.9
2023-03-16T07:33:35.571Z,83.3
2023-03-16T07:39:26.418Z,83.3
2023-03-16T07:45:16.907Z,82.8
2023-03-16T07:51:06.728Z,82.4
2023-03-16T07:56:55.662Z,82.5
2023-03-16T08:02:45.525Z,81.5
2023-03-16T08:08:38.865Z,82
2023-03-16T08:14:32.467Z,81.6
2023-03-16T08:20:22.164Z,81.6
2023-03-16T08:26:13.457Z,81.6
2023-03-16T08:32:04.681Z,81.7
2023-03-16T08:37:56.301Z,81.2
2023-03-16T08:43:49.024Z,80.7
2023-03-16T08:49:42.786Z,80.2
2023-03-16T08:55:34.040Z,79.6
2023-03-16T09:01:23.859Z,79.3
2023-03-16T09:07:14.445Z,79.4
2023-03-16T09:13:05.036Z,79.1
2023-03-16T09:18:55.982Z,79.4
2023-03-16T09:24:47.308Z,78.8
2023-03-16T09:30:36.308Z,78
2023-03-16T09:36:28.636Z,77.7
2023-03-16T09:42:19.313Z,77.1
2023-03-16T09:48:11.207Z,75.7
2023-03-16T09:54:02.840Z,75.5
2023-03-16T09:59:53.763Z,75.1
2023-03-16T10:05:44.476Z,74.7
2023-03-16T10:11:35.718Z,74.4
2023-03-16T10:17:26.603Z,73.5
2023-03-16T10:23:17.964Z,73.6
2023-03-16T10:29:08.557Z,72.6
2023-03-16T10:34:58.938Z,72.2
2023-03-16T10:40:53.148Z,72.4
2023-03-16T10:46:44.279Z,71.8
2023-03-16T10:52:35.727Z,70.7
2023-03-16T10:58:28.926Z,70
2023-03-16T11:04:19.753Z,69.5
2023-03-16T11:10:10.707Z,69.2
2023-03-16T11:16:01.441Z,69.6
2023-03-16T11:21:53.817Z,68.8
2023-03-16T11:27:45.362Z,68.4
2023-03-16T11:33:36.318Z,67.5
2023-03-16T11:39:27.521Z,66.7
2023-03-16T11:45:18.350Z,66.7
2023-03-16T11:51:08.673Z,66.9
2023-03-16T11:57:00.145Z,65.9
2023-03-16T12:02:51.505Z,65.7
2023-03-16T12:08:42.852Z,64.5
2023-03-16T12:14:30.934Z,64.6
2023-03-16T12:20:21.670Z,64.3
2023-03-16T12:26:12.986Z,63.4
2023-03-16T12:32:03.797Z,63.6
2023-03-16T12:37:54.938Z,62
2023-03-16T12:43:46.501Z,61.2
2023-03-16T12:49:38.033Z,61.9
2023-03-16T12:55:30.004Z,61.9
2023-03-16T13:01:20.872Z,60.8
2023-03-16T13:07:14.780Z,60.4
2023-03-16T13:13:06.785Z,60.5
2023-03-16T13:19:00.214Z,60.2
2023-03-16T13:24:52.467Z,59.7
2023-03-16T13:30:43.291Z,59.9
2023-03-16T13:36:37.008Z,59.8
2023-03-16T13:42:34.857Z,59.3
2023-03-16T13:48:26.987Z,59.1
2023-03-16T13:54:19.453Z,58.7
2023-03-16T14:06:03.190Z,57.6
2023-03-16T14:11:57.086Z,57.3
2023-03-16T14:17:49.973Z,57.6
2023-03-16T14:23:53.394Z,56.9
2023-03-16T14:29:46.196Z,57.6
2023-03-16T14:35:38.520Z,58.6
2023-03-16T14:47:27.085Z,58.4
2023-03-16T15:11:49.095Z,59.4
2023-03-16T15:23:39.078Z,58.9
2023-03-16T15:29:35.740Z,59.4
2023-03-16T15:35:30.915Z,59.6
2023-03-16T15:41:47.397Z,59.9
2023-03-16T15:47:53.838Z,60.4
2023-03-16T15:53:56.591Z,61.2
2023-03-16T16:12:15.388Z,61.5
2023-03-16T16:18:41.879Z,61.7
2023-03-16T16:25:18.297Z,61.9
2023-03-16T16:31:10.033Z,62.1
2023-03-16T16:37:00.775Z,61.8
2023-03-16T16:42:54.989Z,61.6
2023-03-16T16:49:00.109Z,61.8
2023-03-16T16:55:06.079Z,61.8
2023-03-16T17:07:15.401Z,61.8
2023-03-16T17:13:07.723Z,62.2
2023-03-16T17:18:59.550Z,62.6
2023-03-16T17:24:54.304Z,62.4
2023-03-16T17:30:47.737Z,62.7
2023-03-16T17:36:44.148Z,62.9
2023-03-16T17:42:57.750Z,62.7
2023-03-16T17:55:06.232Z,63.4
2023-03-16T18:01:15.383Z,63.3
2023-03-16T18:07:18.143Z,63.4
2023-03-16T18:13:36.713Z,63.8
2023-03-16T18:19:47.351Z,64.1
2023-03-16T18:32:11.715Z,64.9
2023-03-16T18:45:02.666Z,65.6
2023-03-16T18:50:58.256Z,65.8
2023-03-16T19:14:38.217Z,67.4
2023-03-16T19:20:58.939Z,67.6
2023-03-16T19:44:58.296Z,68.4
2023-03-16T20:02:56.960Z,69.2
2023-03-16T20:08:54.074Z,69.2
2023-03-16T20:15:04.853Z,69.5
2023-03-16T20:21:16.070Z,69.4
2023-03-16T20:27:15.130Z,69.3
2023-03-16T20:33:34.579Z,69.5
2023-03-16T21:14:48.962Z,69.7
2023-03-16T21:27:39.111Z,69.1
2023-03-16T22:18:03.766Z,68.1
2023-03-16T22:24:03.770Z,68.8
2023-03-16T22:30:31.351Z,68.6
2023-03-16T22:36:35.790Z,69
2023-03-16T22:42:46.724Z,69.1
2023-03-16T22:48:53.513Z,69.3
2023-03-16T22:55:06.226Z,69.1
2023-03-16T23:25:06.578Z,69.3
2023-03-16T23:31:12.399Z,69.5
2023-03-16T23:37:11.435Z,70.4
2023-03-16T23:43:11.128Z,70.6
2023-03-16T23:49:15.263Z,70.8
2023-03-16T23:55:14.283Z,71.2
